Etusivu
METAR-TAF:

METAR-TAF

Lentoasemat :

Smithers, Brittiläinen Kolumbia, Kanada

Leveyspiiri: 54-49N, Pituuspiiri: 127-11W, korkeus merenpinnasta: 523 m

Tämänhetkinen sää

Tämä raportti tehtiin 15 minuuttia sitten, kello 12.18 UTC
tyyntä
Lämpötila 3°C
Kosteus 100%
Ilmanpaine 1010 hPa
Näkyvyys: 11.3 km
Hajanaisia pilviä 7000 ft:n korkeudessa

METAR: CYYD 191218Z AUTO 00000KT 7SM SCT070 03/03 A2983 RMK SLP109

Aika: 05:33 (12:33 UTC)

Sääennuste

Tämä raportti tehtiin 11 tuntia ja 55 minuuttia sitten, kello 00.38 UTC
Ennuste voimassa 19. päivästä klo 01 UTC - 19. päivään klo 06 UTC
Tuuli 3 kn eri suunnista
Näkyvyys: 10 km
Hajanaisia pilviä 6000 ft:n korkeudessa
Hajonneita pilviä 9000 ft:n korkeudessa

TAF: CYYD 190038Z 1901/1906 VRB03KT P6SM SCT060 BKN090 RMK NXT FCST WILL BE ISSUED AT 191345Z

Säähavainnot ja -ennusteet yli 4000 lentoasemalta (METAR- ja TAF-raportit).

Käytössä olevat sääasemat on merkitty karttaan keltaisilla ja punaisilla pisteillä.

Aseta hiiri pisteen päälle nähdäksesi sääaseman nimen.

Klikkaa sitten nähdäksesi säähavainnot ja -ennusteet.

Kartan vaihtaminen: klikkaa mustalla rastilla varustettuja vihreitä pisteitä, niin voit zoomata sisään; viivalla varustettua vihreää pistettä, niin voit zoomata ulos tai vihreitä nuolia, niin pääset viereisille kartoille.


METAR-TAF: